UZB763 UZTT-UAAA
Flight info
| Callsign | UZB763 |
|---|---|
| Flight time | 1h 3m |
| Altitude | 35000 |
| Route | N0450F350 BAMUT Z580 ANESA N143 TAR Z817 TIPSA |
| Aircraft | A320/M-VGDW/C |
Departure
| Time | 2026-04-26 12:51 |
|---|---|
| Airport | Tashkent International Airport (UZTT) |
Arrival
| Time | 2026-04-26 13:54 |
|---|---|
| Airport | Almaty International Airport (UAAA) |
| Time | Latitude | Longitude | Altitude | Speed | Heading |
|---|---|---|---|---|---|
| 2026-04-26 12:31 | 41.26044 | 69.26998 | 1381 ft | 0 kts | 336° |
| 2026-04-26 12:45 | 41.26056 | 69.26991 | 1379 ft | 4 kts | 335° |
| 2026-04-26 12:46 | 41.26067 | 69.26941 | 1378 ft | 8 kts | 262° |
| 2026-04-26 12:46 | 41.26040 | 69.26851 | 1379 ft | 13 kts | 246° |
| 2026-04-26 12:46 | 41.26004 | 69.26743 | 1380 ft | 12 kts | 245° |
| 2026-04-26 12:46 | 41.25972 | 69.26649 | 1379 ft | 10 kts | 245° |
| 2026-04-26 12:47 | 41.25945 | 69.26570 | 1378 ft | 8 kts | 246° |
| 2026-04-26 12:47 | 41.25925 | 69.26506 | 1381 ft | 7 kts | 246° |
| 2026-04-26 12:47 | 41.25895 | 69.26465 | 1382 ft | 8 kts | 218° |
| 2026-04-26 12:47 | 41.25822 | 69.26387 | 1382 ft | 18 kts | 219° |
| 2026-04-26 12:48 | 41.25745 | 69.26279 | 1381 ft | 15 kts | 241° |
| 2026-04-26 12:48 | 41.25704 | 69.26164 | 1380 ft | 13 kts | 245° |
| 2026-04-26 12:48 | 41.25662 | 69.26073 | 1379 ft | 10 kts | 201° |
| 2026-04-26 12:48 | 41.25625 | 69.26125 | 1382 ft | 8 kts | 102° |
| 2026-04-26 12:49 | 41.25634 | 69.26195 | 1379 ft | 7 kts | 78° |
| 2026-04-26 12:49 | 41.25636 | 69.26209 | 1378 ft | 0 kts | 82° |
| 2026-04-26 12:50 | 41.25637 | 69.26218 | 1379 ft | 6 kts | 82° |
| 2026-04-26 12:50 | 41.25666 | 69.26468 | 1380 ft | 61 kts | 81° |
| 2026-04-26 12:50 | 41.25761 | 69.27330 | 1381 ft | 125 kts | 81° |
| 2026-04-26 12:50 | 41.25910 | 69.28703 | 1378 ft | 174 kts | 81° |
| 2026-04-26 12:51 | 41.26079 | 69.30312 | 1930 ft | 176 kts | 79° |
| 2026-04-26 12:51 | 41.26026 | 69.31937 | 2597 ft | 182 kts | 108° |
| 2026-04-26 12:51 | 41.25199 | 69.33258 | 3090 ft | 195 kts | 151° |
| 2026-04-26 12:51 | 41.23877 | 69.33742 | 3428 ft | 211 kts | 184° |
| 2026-04-26 12:52 | 41.22431 | 69.33129 | 3653 ft | 232 kts | 212° |
| 2026-04-26 12:52 | 41.20961 | 69.32008 | 3989 ft | 256 kts | 212° |
| 2026-04-26 12:52 | 41.19347 | 69.30754 | 4388 ft | 281 kts | 213° |
| 2026-04-26 12:52 | 41.17614 | 69.29336 | 4768 ft | 304 kts | 219° |
| 2026-04-26 12:53 | 41.16107 | 69.27255 | 5147 ft | 321 kts | 238° |
| 2026-04-26 12:53 | 41.15186 | 69.24551 | 5896 ft | 324 kts | 257° |
| 2026-04-26 12:53 | 41.14794 | 69.21598 | 6753 ft | 326 kts | 262° |
| 2026-04-26 12:53 | 41.14453 | 69.18609 | 7578 ft | 329 kts | 262° |
| 2026-04-26 12:54 | 41.14484 | 69.15565 | 8343 ft | 334 kts | 282° |
| 2026-04-26 12:54 | 41.15363 | 69.12762 | 9169 ft | 338 kts | 303° |
| 2026-04-26 12:54 | 41.17029 | 69.10542 | 9975 ft | 346 kts | 325° |
| 2026-04-26 12:54 | 41.19273 | 69.09337 | 10705 ft | 354 kts | 347° |
| 2026-04-26 12:55 | 41.21730 | 69.08891 | 11474 ft | 357 kts | 351° |
| 2026-04-26 12:55 | 41.24207 | 69.08495 | 12253 ft | 360 kts | 351° |
| 2026-04-26 12:55 | 41.26702 | 69.08082 | 13010 ft | 362 kts | 350° |
| 2026-04-26 12:55 | 41.29208 | 69.07641 | 13756 ft | 365 kts | 349° |
| 2026-04-26 12:56 | 41.31758 | 69.07440 | 14398 ft | 371 kts | 360° |
| 2026-04-26 12:56 | 41.34299 | 69.07899 | 15000 ft | 378 kts | 11° |
| 2026-04-26 12:56 | 41.36794 | 69.09068 | 15601 ft | 384 kts | 23° |
| 2026-04-26 12:56 | 41.39205 | 69.10648 | 16216 ft | 388 kts | 24° |
| 2026-04-26 12:57 | 41.41635 | 69.12251 | 16828 ft | 391 kts | 25° |
| 2026-04-26 12:57 | 41.44083 | 69.13861 | 17441 ft | 394 kts | 25° |
| 2026-04-26 12:57 | 41.46556 | 69.15483 | 18042 ft | 398 kts | 25° |
| 2026-04-26 12:58 | 41.51571 | 69.18767 | 19115 ft | 406 kts | 25° |
| 2026-04-26 12:58 | 41.54116 | 69.20440 | 19614 ft | 410 kts | 25° |
| 2026-04-26 12:58 | 41.56649 | 69.22109 | 20117 ft | 413 kts | 25° |
| 2026-04-26 12:58 | 41.59241 | 69.23815 | 20631 ft | 417 kts | 25° |
| 2026-04-26 12:59 | 41.61853 | 69.25534 | 21129 ft | 421 kts | 25° |
| 2026-04-26 12:59 | 41.64492 | 69.27272 | 21608 ft | 425 kts | 25° |
| 2026-04-26 12:59 | 41.67154 | 69.29028 | 22078 ft | 428 kts | 25° |
| 2026-04-26 12:59 | 41.69837 | 69.30804 | 22538 ft | 432 kts | 25° |
| 2026-04-26 13:00 | 41.72542 | 69.32598 | 22983 ft | 436 kts | 25° |
| 2026-04-26 13:00 | 41.75274 | 69.34408 | 23375 ft | 441 kts | 25° |
| 2026-04-26 13:00 | 41.78038 | 69.36238 | 23751 ft | 445 kts | 25° |
| 2026-04-26 13:00 | 41.80788 | 69.38062 | 24089 ft | 448 kts | 25° |
| 2026-04-26 13:01 | 41.83583 | 69.39946 | 24479 ft | 451 kts | 28° |
| 2026-04-26 13:01 | 41.86212 | 69.42271 | 24832 ft | 455 kts | 38° |
| 2026-04-26 13:01 | 41.88562 | 69.45129 | 25180 ft | 458 kts | 44° |
| 2026-04-26 13:01 | 41.90843 | 69.48127 | 25530 ft | 460 kts | 44° |
| 2026-04-26 13:02 | 41.93136 | 69.51141 | 25875 ft | 462 kts | 44° |
| 2026-04-26 13:02 | 41.95439 | 69.54174 | 26228 ft | 464 kts | 44° |
| 2026-04-26 13:02 | 41.97747 | 69.57217 | 26603 ft | 466 kts | 44° |
| 2026-04-26 13:02 | 42.00032 | 69.60231 | 26893 ft | 469 kts | 44° |
| 2026-04-26 13:03 | 42.02374 | 69.63319 | 27199 ft | 472 kts | 44° |
| 2026-04-26 13:03 | 42.04718 | 69.66412 | 27507 ft | 474 kts | 44° |
| 2026-04-26 13:03 | 42.07077 | 69.69530 | 27808 ft | 476 kts | 43° |
| 2026-04-26 13:03 | 42.09448 | 69.72663 | 28096 ft | 479 kts | 43° |
| 2026-04-26 13:04 | 42.11830 | 69.75813 | 28378 ft | 481 kts | 43° |
| 2026-04-26 13:04 | 42.14219 | 69.78982 | 28647 ft | 483 kts | 43° |
| 2026-04-26 13:04 | 42.16617 | 69.82168 | 28922 ft | 485 kts | 43° |
| 2026-04-26 13:04 | 42.19026 | 69.85368 | 29171 ft | 487 kts | 43° |
| 2026-04-26 13:05 | 42.21412 | 69.88540 | 29421 ft | 489 kts | 43° |
| 2026-04-26 13:05 | 42.23838 | 69.91772 | 29668 ft | 491 kts | 44° |
| 2026-04-26 13:05 | 42.26272 | 69.95021 | 29940 ft | 492 kts | 43° |
| 2026-04-26 13:05 | 42.28706 | 69.98274 | 30270 ft | 492 kts | 43° |
| 2026-04-26 13:06 | 42.31133 | 70.01517 | 30552 ft | 492 kts | 43° |
| 2026-04-26 13:06 | 42.33568 | 70.04776 | 30846 ft | 491 kts | 43° |
| 2026-04-26 13:06 | 42.35991 | 70.08024 | 31148 ft | 490 kts | 43° |
| 2026-04-26 13:06 | 42.38409 | 70.11271 | 31441 ft | 490 kts | 43° |
| 2026-04-26 13:07 | 42.40824 | 70.14518 | 31733 ft | 489 kts | 43° |
| 2026-04-26 13:07 | 42.43202 | 70.17720 | 32028 ft | 488 kts | 43° |
| 2026-04-26 13:07 | 42.45610 | 70.20962 | 32339 ft | 488 kts | 43° |
| 2026-04-26 13:07 | 42.48011 | 70.24197 | 32654 ft | 487 kts | 43° |
| 2026-04-26 13:08 | 42.50407 | 70.27433 | 32949 ft | 486 kts | 43° |
| 2026-04-26 13:08 | 42.52799 | 70.30667 | 33226 ft | 486 kts | 43° |
| 2026-04-26 13:08 | 42.55188 | 70.33901 | 33519 ft | 486 kts | 43° |
| 2026-04-26 13:08 | 42.57577 | 70.37138 | 33817 ft | 485 kts | 42° |
| 2026-04-26 13:09 | 42.59872 | 70.40506 | 34104 ft | 487 kts | 50° |
| 2026-04-26 13:09 | 42.61764 | 70.44241 | 34361 ft | 488 kts | 59° |
| 2026-04-26 13:09 | 42.63259 | 70.48381 | 34601 ft | 489 kts | 68° |
| 2026-04-26 13:09 | 42.64446 | 70.52708 | 34832 ft | 489 kts | 69° |
| 2026-04-26 13:10 | 42.65624 | 70.57053 | 35048 ft | 489 kts | 69° |
| 2026-04-26 13:10 | 42.66804 | 70.61390 | 35134 ft | 490 kts | 69° |
| 2026-04-26 13:10 | 42.69322 | 70.70007 | 35149 ft | 491 kts | 66° |
| 2026-04-26 13:11 | 42.72002 | 70.78532 | 35143 ft | 490 kts | 66° |
| 2026-04-26 13:11 | 42.74660 | 70.87012 | 35144 ft | 491 kts | 66° |
| 2026-04-26 13:12 | 42.77262 | 70.95560 | 35127 ft | 487 kts | 67° |
| 2026-04-26 13:12 | 42.79825 | 71.04093 | 35126 ft | 487 kts | 67° |
| 2026-04-26 13:13 | 42.82389 | 71.12630 | 35129 ft | 487 kts | 67° |
| 2026-04-26 13:13 | 42.84939 | 71.21108 | 35128 ft | 487 kts | 67° |
| 2026-04-26 13:14 | 42.87317 | 71.29753 | 35150 ft | 488 kts | 76° |
| 2026-04-26 13:14 | 42.88830 | 71.38775 | 35137 ft | 489 kts | 77° |
| 2026-04-26 13:15 | 42.90321 | 71.47818 | 35125 ft | 489 kts | 77° |
| 2026-04-26 13:15 | 42.91806 | 71.56822 | 35126 ft | 490 kts | 78° |
| 2026-04-26 13:16 | 42.93297 | 71.65902 | 35134 ft | 490 kts | 78° |
| 2026-04-26 13:16 | 42.94776 | 71.74983 | 35137 ft | 490 kts | 78° |
| 2026-04-26 13:17 | 42.97049 | 71.88589 | 35142 ft | 490 kts | 76° |
| 2026-04-26 13:18 | 42.99819 | 72.01961 | 35146 ft | 489 kts | 75° |
| 2026-04-26 13:19 | 43.02574 | 72.15377 | 35146 ft | 488 kts | 76° |
| 2026-04-26 13:19 | 43.04327 | 72.24339 | 35145 ft | 488 kts | 76° |
| 2026-04-26 13:20 | 43.06065 | 72.33300 | 35137 ft | 487 kts | 76° |
| 2026-04-26 13:20 | 43.07801 | 72.42188 | 35129 ft | 487 kts | 76° |
| 2026-04-26 13:21 | 43.09547 | 72.51124 | 35125 ft | 486 kts | 76° |
| 2026-04-26 13:21 | 43.11280 | 72.60070 | 35115 ft | 486 kts | 76° |
| 2026-04-26 13:22 | 43.13008 | 72.69014 | 35094 ft | 483 kts | 76° |
| 2026-04-26 13:22 | 43.14693 | 72.77759 | 35097 ft | 476 kts | 76° |
| 2026-04-26 13:23 | 43.16369 | 72.86510 | 35079 ft | 475 kts | 76° |
| 2026-04-26 13:23 | 43.18040 | 72.95262 | 35068 ft | 474 kts | 76° |
| 2026-04-26 13:24 | 43.19698 | 73.04018 | 35074 ft | 475 kts | 77° |
| 2026-04-26 13:24 | 43.21328 | 73.12709 | 35061 ft | 474 kts | 77° |
| 2026-04-26 13:25 | 43.22961 | 73.21473 | 35057 ft | 474 kts | 77° |
| 2026-04-26 13:25 | 43.24595 | 73.30235 | 35044 ft | 474 kts | 77° |
| 2026-04-26 13:26 | 43.26221 | 73.39003 | 35036 ft | 474 kts | 77° |
| 2026-04-26 13:26 | 43.27824 | 73.47724 | 35037 ft | 474 kts | 77° |
| 2026-04-26 13:27 | 43.29427 | 73.56498 | 35037 ft | 474 kts | 77° |
| 2026-04-26 13:27 | 43.31037 | 73.65291 | 35026 ft | 475 kts | 77° |
| 2026-04-26 13:28 | 43.32643 | 73.74079 | 35031 ft | 475 kts | 77° |
| 2026-04-26 13:28 | 43.34223 | 73.82830 | 35030 ft | 475 kts | 77° |
| 2026-04-26 13:29 | 43.35804 | 73.91634 | 35034 ft | 475 kts | 77° |
| 2026-04-26 13:29 | 43.37386 | 74.00447 | 35031 ft | 475 kts | 77° |
| 2026-04-26 13:30 | 43.38956 | 74.09265 | 35037 ft | 475 kts | 77° |
| 2026-04-26 13:30 | 43.40524 | 74.18087 | 35039 ft | 475 kts | 77° |
| 2026-04-26 13:31 | 43.42066 | 74.26855 | 35050 ft | 475 kts | 77° |
| 2026-04-26 13:31 | 43.43620 | 74.35685 | 35051 ft | 475 kts | 77° |
| 2026-04-26 13:32 | 43.45178 | 74.44507 | 35068 ft | 474 kts | 77° |
| 2026-04-26 13:32 | 43.46719 | 74.53321 | 35071 ft | 474 kts | 77° |
| 2026-04-26 13:33 | 43.48243 | 74.62080 | 35072 ft | 473 kts | 78° |
| 2026-04-26 13:33 | 43.49769 | 74.70944 | 34544 ft | 481 kts | 78° |
| 2026-04-26 13:33 | 43.50538 | 74.75421 | 33926 ft | 479 kts | 77° |
| 2026-04-26 13:34 | 43.51300 | 74.79864 | 33366 ft | 474 kts | 77° |
| 2026-04-26 13:34 | 43.52054 | 74.84265 | 32802 ft | 470 kts | 77° |
| 2026-04-26 13:34 | 43.52801 | 74.88633 | 32257 ft | 466 kts | 77° |
| 2026-04-26 13:34 | 43.53292 | 74.91501 | 31899 ft | 463 kts | 77° |
| 2026-04-26 13:35 | 43.54262 | 74.97199 | 31182 ft | 459 kts | 77° |
| 2026-04-26 13:35 | 43.54987 | 75.01470 | 30648 ft | 456 kts | 77° |
| 2026-04-26 13:35 | 43.55705 | 75.05713 | 30128 ft | 453 kts | 77° |
| 2026-04-26 13:35 | 43.56418 | 75.09928 | 29549 ft | 449 kts | 77° |
| 2026-04-26 13:36 | 43.57123 | 75.14106 | 29054 ft | 445 kts | 77° |
| 2026-04-26 13:36 | 43.57819 | 75.18234 | 28561 ft | 440 kts | 77° |
| 2026-04-26 13:36 | 43.58504 | 75.22325 | 28065 ft | 436 kts | 77° |
| 2026-04-26 13:36 | 43.59179 | 75.26379 | 27585 ft | 432 kts | 77° |
| 2026-04-26 13:37 | 43.59847 | 75.30396 | 27126 ft | 428 kts | 77° |
| 2026-04-26 13:37 | 43.60499 | 75.34323 | 26684 ft | 424 kts | 77° |
| 2026-04-26 13:37 | 43.61154 | 75.38266 | 26222 ft | 420 kts | 77° |
| 2026-04-26 13:37 | 43.61800 | 75.42184 | 25775 ft | 417 kts | 78° |
| 2026-04-26 13:38 | 43.62438 | 75.46073 | 25319 ft | 414 kts | 77° |
| 2026-04-26 13:38 | 43.63072 | 75.49940 | 24851 ft | 412 kts | 78° |
| 2026-04-26 13:38 | 43.63463 | 75.53838 | 24388 ft | 409 kts | 89° |
| 2026-04-26 13:38 | 43.63395 | 75.57743 | 23921 ft | 406 kts | 95° |
| 2026-04-26 13:39 | 43.63228 | 75.61624 | 23411 ft | 405 kts | 94° |
| 2026-04-26 13:39 | 43.63061 | 75.65491 | 22905 ft | 402 kts | 94° |
| 2026-04-26 13:39 | 43.62897 | 75.69273 | 22444 ft | 399 kts | 94° |
| 2026-04-26 13:39 | 43.62731 | 75.73077 | 21975 ft | 396 kts | 94° |
| 2026-04-26 13:40 | 43.62565 | 75.76861 | 21504 ft | 394 kts | 94° |
| 2026-04-26 13:40 | 43.62399 | 75.80615 | 21023 ft | 391 kts | 94° |
| 2026-04-26 13:40 | 43.62234 | 75.84351 | 20573 ft | 389 kts | 94° |
| 2026-04-26 13:40 | 43.62071 | 75.88068 | 20108 ft | 387 kts | 94° |
| 2026-04-26 13:41 | 43.61911 | 75.91767 | 19638 ft | 386 kts | 94° |
| 2026-04-26 13:41 | 43.61750 | 75.95455 | 19169 ft | 384 kts | 94° |
| 2026-04-26 13:41 | 43.61587 | 75.99080 | 18713 ft | 383 kts | 94° |
| 2026-04-26 13:41 | 43.61416 | 76.02753 | 18240 ft | 383 kts | 94° |
| 2026-04-26 13:42 | 43.61247 | 76.06405 | 17747 ft | 381 kts | 94° |
| 2026-04-26 13:42 | 43.61078 | 76.10041 | 17294 ft | 378 kts | 94° |
| 2026-04-26 13:42 | 43.60910 | 76.13651 | 16849 ft | 376 kts | 94° |
| 2026-04-26 13:42 | 43.60739 | 76.17235 | 16406 ft | 373 kts | 94° |
| 2026-04-26 13:43 | 43.60566 | 76.20803 | 15962 ft | 371 kts | 94° |
| 2026-04-26 13:43 | 43.60395 | 76.24347 | 15527 ft | 370 kts | 95° |
| 2026-04-26 13:43 | 43.59963 | 76.27769 | 15100 ft | 366 kts | 109° |
| 2026-04-26 13:43 | 43.58929 | 76.30950 | 14700 ft | 360 kts | 124° |
| 2026-04-26 13:44 | 43.57407 | 76.33593 | 14573 ft | 345 kts | 138° |
| 2026-04-26 13:44 | 43.55572 | 76.35622 | 14160 ft | 333 kts | 152° |
| 2026-04-26 13:44 | 43.53539 | 76.37098 | 13440 ft | 328 kts | 157° |
| 2026-04-26 13:44 | 43.51530 | 76.38476 | 13000 ft | 316 kts | 157° |
| 2026-04-26 13:45 | 43.49600 | 76.39800 | 12619 ft | 306 kts | 157° |
| 2026-04-26 13:45 | 43.47694 | 76.41102 | 12247 ft | 306 kts | 157° |
| 2026-04-26 13:45 | 43.45783 | 76.42405 | 12115 ft | 308 kts | 157° |
| 2026-04-26 13:45 | 43.43883 | 76.43702 | 11993 ft | 310 kts | 157° |
| 2026-04-26 13:46 | 43.41958 | 76.45022 | 11796 ft | 309 kts | 156° |
| 2026-04-26 13:46 | 43.40133 | 76.46603 | 11630 ft | 311 kts | 144° |
| 2026-04-26 13:46 | 43.38513 | 76.48631 | 11127 ft | 316 kts | 139° |
| 2026-04-26 13:46 | 43.36936 | 76.50700 | 10813 ft | 313 kts | 139° |
| 2026-04-26 13:47 | 43.35374 | 76.52761 | 10223 ft | 311 kts | 138° |
| 2026-04-26 13:47 | 43.33817 | 76.54815 | 9560 ft | 310 kts | 138° |
| 2026-04-26 13:47 | 43.32275 | 76.56842 | 9004 ft | 304 kts | 138° |
| 2026-04-26 13:47 | 43.30757 | 76.58832 | 8537 ft | 306 kts | 138° |
| 2026-04-26 13:48 | 43.29235 | 76.60820 | 8330 ft | 297 kts | 138° |
| 2026-04-26 13:48 | 43.27770 | 76.62740 | 8237 ft | 286 kts | 136° |
| 2026-04-26 13:48 | 43.26595 | 76.64890 | 8014 ft | 280 kts | 118° |
| 2026-04-26 13:48 | 43.25907 | 76.67389 | 7510 ft | 280 kts | 102° |
| 2026-04-26 13:49 | 43.25500 | 76.69952 | 7150 ft | 268 kts | 102° |
| 2026-04-26 13:49 | 43.25101 | 76.72393 | 6789 ft | 257 kts | 103° |
| 2026-04-26 13:49 | 43.24712 | 76.74737 | 6434 ft | 247 kts | 103° |
| 2026-04-26 13:49 | 43.24336 | 76.76982 | 6149 ft | 238 kts | 103° |
| 2026-04-26 13:50 | 43.24036 | 76.79167 | 5868 ft | 236 kts | 92° |
| 2026-04-26 13:50 | 43.24230 | 76.81376 | 5599 ft | 233 kts | 72° |
| 2026-04-26 13:50 | 43.24953 | 76.83342 | 5337 ft | 231 kts | 56° |
| 2026-04-26 13:50 | 43.25860 | 76.85152 | 5063 ft | 230 kts | 55° |
| 2026-04-26 13:51 | 43.26761 | 76.86952 | 4714 ft | 227 kts | 56° |
| 2026-04-26 13:51 | 43.27629 | 76.88691 | 4449 ft | 215 kts | 56° |
| 2026-04-26 13:51 | 43.28452 | 76.90342 | 4175 ft | 205 kts | 56° |
| 2026-04-26 13:51 | 43.29232 | 76.91907 | 3949 ft | 193 kts | 56° |
| 2026-04-26 13:52 | 43.29972 | 76.93393 | 3671 ft | 184 kts | 57° |
| 2026-04-26 13:52 | 43.30659 | 76.94773 | 3467 ft | 169 kts | 58° |
| 2026-04-26 13:52 | 43.31301 | 76.96064 | 3251 ft | 159 kts | 58° |
| 2026-04-26 13:52 | 43.31915 | 76.97300 | 3012 ft | 154 kts | 58° |
| 2026-04-26 13:53 | 43.32514 | 76.98515 | 2810 ft | 153 kts | 56° |
| 2026-04-26 13:53 | 43.33116 | 76.99717 | 2612 ft | 152 kts | 57° |
| 2026-04-26 13:53 | 43.33711 | 77.00906 | 2417 ft | 151 kts | 58° |
| 2026-04-26 13:53 | 43.34300 | 77.02098 | 2239 ft | 148 kts | 57° |
| 2026-04-26 13:54 | 43.34809 | 77.03125 | 2224 ft | 107 kts | 56° |
| 2026-04-26 13:54 | 43.35103 | 77.03722 | 2226 ft | 36 kts | 55° |
| 2026-04-26 13:54 | 43.35240 | 77.03906 | 2225 ft | 28 kts | 33° |
| 2026-04-26 13:55 | 43.35422 | 77.04011 | 2223 ft | 14 kts | 350° |
| 2026-04-26 13:55 | 43.35441 | 77.03944 | 2225 ft | 12 kts | 248° |
| 2026-04-26 13:55 | 43.35331 | 77.03720 | 2222 ft | 12 kts | 237° |
| 2026-04-26 13:56 | 43.35274 | 77.03605 | 2226 ft | 17 kts | 235° |
| 2026-04-26 13:56 | 43.35204 | 77.03468 | 2229 ft | 18 kts | 234° |
| 2026-04-26 13:56 | 43.35128 | 77.03320 | 2227 ft | 20 kts | 236° |
| 2026-04-26 13:56 | 43.35042 | 77.03143 | 2223 ft | 24 kts | 236° |
| 2026-04-26 13:57 | 43.34945 | 77.02943 | 2224 ft | 26 kts | 236° |
| 2026-04-26 13:57 | 43.34841 | 77.02733 | 2225 ft | 27 kts | 236° |
| 2026-04-26 13:57 | 43.34771 | 77.02530 | 2228 ft | 20 kts | 272° |
| 2026-04-26 13:57 | 43.34779 | 77.02329 | 2228 ft | 22 kts | 274° |
| 2026-04-26 13:58 | 43.34790 | 77.02108 | 2228 ft | 24 kts | 274° |
| 2026-04-26 13:58 | 43.34800 | 77.01877 | 2228 ft | 25 kts | 274° |
| 2026-04-26 13:58 | 43.34813 | 77.01629 | 2227 ft | 27 kts | 274° |
| 2026-04-26 13:58 | 43.34861 | 77.01509 | 2228 ft | 12 kts | 335° |
| 2026-04-26 13:59 | 43.34902 | 77.01438 | 2227 ft | 9 kts | 257° |
| 2026-04-26 13:59 | 43.34878 | 77.01366 | 2227 ft | 5 kts | 246° |
| 2026-04-26 13:59 | 43.34876 | 77.01358 | 2227 ft | 0 kts | 246° |